Time;durP1;ratioP1;P1;durP2;ratioP2;P2;SDS_P1;SDS_P2;PMS_P1;PMS_P2;Temp;Humidity;BMP_temperature;BMP_pressure;BME280_temperature;BME280_humidity;BME280_pressure;Samples;Min_cycle;Max_cycle;Signal;HPM_P1;HPM_P2
2023/05/26 00:00:16;;;;;;;;;;;16.60;99.90;;;;;;5033539;28;19908;-40
2023/05/26 00:02:41;;;;;;;;;;;16.60;99.90;;;;;;5033417;28;19937;-41
2023/05/26 00:05:07;;;;;;;;;;;16.70;99.90;;;;;;5033463;28;19963;-41
2023/05/26 00:07:37;;;;;;;;;;;16.60;99.90;;;;;;5032850;28;19920;-40
2023/05/26 00:10:02;;;;;;;;;;;16.60;99.90;;;;;;5033041;28;20030;-41
2023/05/26 00:12:28;;;;;;;;;;;16.60;99.90;;;;;;5033331;28;19920;-40
2023/05/26 00:14:53;;;;;;;;;;;16.60;99.90;;;;;;5033226;28;19989;-41
2023/05/26 00:17:19;;;;;;;;;;;16.60;99.90;;;;;;5032723;28;19905;-41
2023/05/26 00:19:45;;;;;;;;;;;16.60;99.90;;;;;;5033166;28;19909;-40
2023/05/26 00:22:12;;;;;;;;;;;16.60;99.90;;;;;;5033096;28;19912;-41
2023/05/26 00:24:38;;;;;;;;;;;16.60;99.90;;;;;;5032982;28;19909;-40
2023/05/26 00:27:03;;;;;;;;;;;16.60;99.90;;;;;;5032537;28;20281;-41
2023/05/26 00:29:30;;;;;;;;;;;16.60;99.90;;;;;;5033078;28;20325;-40
2023/05/26 00:31:56;;;;;;;;;;;16.60;99.90;;;;;;5033000;28;20423;-42
2023/05/26 00:34:21;;;;;;;;;;;16.60;99.90;;;;;;5032849;28;19984;-40
2023/05/26 00:36:47;;;;;;;;;;;16.60;99.90;;;;;;5032251;28;20290;-40
2023/05/26 00:39:12;;;;;;;;;;;16.60;99.90;;;;;;5032744;28;19920;-41
2023/05/26 00:41:38;;;;;;;;;;;16.60;99.90;;;;;;5032821;28;20020;-40
2023/05/26 00:44:03;;;;;;;;;;;16.60;99.90;;;;;;5032586;28;20010;-41
2023/05/26 00:46:29;;;;;;;;;;;16.50;99.90;;;;;;5032106;28;20051;-41
2023/05/26 00:48:55;;;;;;;;;;;16.50;99.90;;;;;;5032643;28;19913;-40
2023/05/26 00:51:22;;;;;;;;;;;16.50;99.90;;;;;;5032561;28;19904;-41
2023/05/26 00:53:48;;;;;;;;;;;16.50;99.90;;;;;;5032349;28;19905;-42
2023/05/26 00:56:15;;;;;;;;;;;16.60;99.90;;;;;;5032170;28;20388;-41
2023/05/26 00:58:44;;;;;;;;;;;16.50;99.90;;;;;;5032491;28;19912;-40
2023/05/26 01:01:10;;;;;;;;;;;16.50;99.90;;;;;;5032381;28;19909;-40
2023/05/26 01:03:37;;;;;;;;;;;16.50;99.90;;;;;;5032306;28;19905;-40
2023/05/26 01:06:02;;;;;;;;;;;16.50;99.90;;;;;;5031769;28;19966;-40
2023/05/26 01:08:28;;;;;;;;;;;16.50;99.90;;;;;;5032118;28;19916;-40
2023/05/26 01:10:55;;;;;;;;;;;16.50;99.90;;;;;;5032383;28;19937;-41
2023/05/26 01:13:24;;;;;;;;;;;16.50;99.90;;;;;;5032169;28;19909;-40
2023/05/26 01:15:51;;;;;;;;;;;16.50;99.90;;;;;;5031787;28;19912;-40
2023/05/26 01:18:40;;;;;;;;;;;16.50;99.90;;;;;;5031989;28;20371;-40
2023/05/26 01:21:08;;;;;;;;;;;16.50;99.90;;;;;;5031537;28;19939;-41
2023/05/26 01:23:36;;;;;;;;;;;16.50;99.90;;;;;;5031905;28;19912;-41
2023/05/26 01:26:07;;;;;;;;;;;16.50;99.90;;;;;;5031663;28;19916;-41
2023/05/26 01:28:35;;;;;;;;;;;16.50;99.90;;;;;;5031862;28;19917;-41
2023/05/26 01:31:01;;;;;;;;;;;16.50;99.90;;;;;;5031823;28;20008;-41
2023/05/26 01:33:27;;;;;;;;;;;16.50;99.90;;;;;;5031743;28;20329;-41
2023/05/26 01:35:53;;;;;;;;;;;16.50;99.90;;;;;;5031465;28;19915;-40
2023/05/26 01:38:18;;;;;;;;;;;16.50;99.90;;;;;;5031622;28;19905;-40
2023/05/26 01:40:45;;;;;;;;;;;16.40;99.90;;;;;;5031837;28;19932;-40
2023/05/26 01:43:18;;;;;;;;;;;16.50;99.90;;;;;;5031963;28;20347;-54
2023/05/26 01:45:47;;;;;;;;;;;16.50;99.90;;;;;;5031351;28;19905;-40
2023/05/26 01:48:14;;;;;;;;;;;16.50;99.90;;;;;;5031433;28;19917;-40
2023/05/26 01:50:54;;;;;;;;;;;16.50;99.90;;;;;;5031542;28;20306;-41
2023/05/26 01:53:20;;;;;;;;;;;16.50;99.90;;;;;;5031553;28;20170;-42
2023/05/26 01:55:49;;;;;;;;;;;16.50;99.90;;;;;;5013574;28;19912;-40
2023/05/26 01:58:14;;;;;;;;;;;16.40;99.90;;;;;;5031284;28;19905;-40
2023/05/26 02:00:46;;;;;;;;;;;16.50;99.90;;;;;;5031523;28;19959;-41
2023/05/26 02:03:12;;;;;;;;;;;16.40;99.90;;;;;;5031359;28;20326;-41
2023/05/26 02:05:38;;;;;;;;;;;16.50;99.90;;;;;;5031461;28;19917;-41
2023/05/26 02:08:03;;;;;;;;;;;16.50;99.90;;;;;;5030882;28;19913;-41
2023/05/26 02:10:29;;;;;;;;;;;16.50;99.90;;;;;;5031362;28;20011;-40
2023/05/26 02:12:54;;;;;;;;;;;16.50;99.90;;;;;;5031185;28;19909;-41
2023/05/26 02:15:20;;;;;;;;;;;16.40;99.90;;;;;;5031536;28;20278;-40
2023/05/26 02:17:47;;;;;;;;;;;16.50;99.90;;;;;;5030883;28;19905;-41
2023/05/26 02:20:13;;;;;;;;;;;16.40;99.90;;;;;;5031298;28;19909;-42
2023/05/26 02:22:39;;;;;;;;;;;16.40;99.90;;;;;;5031336;28;19909;-41
2023/05/26 02:25:05;;;;;;;;;;;16.40;99.90;;;;;;5031292;28;20282;-41
2023/05/26 02:27:31;;;;;;;;;;;16.40;99.90;;;;;;5030660;28;19909;-41
2023/05/26 02:29:57;;;;;;;;;;;16.40;99.90;;;;;;5031331;28;19905;-40
2023/05/26 02:32:22;;;;;;;;;;;16.40;99.90;;;;;;5031554;28;19908;-40
2023/05/26 02:34:48;;;;;;;;;;;16.40;99.90;;;;;;5034553;28;19905;-41
2023/05/26 02:37:13;;;;;;;;;;;16.40;99.90;;;;;;5035002;28;19988;-40
2023/05/26 02:39:39;;;;;;;;;;;16.40;99.90;;;;;;5035139;28;19943;-41
2023/05/26 02:42:06;;;;;;;;;;;16.40;99.90;;;;;;5034934;28;19909;-42
2023/05/26 02:44:31;;;;;;;;;;;16.40;99.90;;;;;;5034970;28;20140;-41
2023/05/26 02:46:57;;;;;;;;;;;16.40;99.90;;;;;;5034395;28;19912;-41
2023/05/26 02:49:23;;;;;;;;;;;16.40;99.90;;;;;;5035131;28;19955;-41
2023/05/26 02:51:49;;;;;;;;;;;16.40;99.90;;;;;;5034849;28;19905;-41
2023/05/26 02:54:14;;;;;;;;;;;16.40;99.90;;;;;;5034768;28;19931;-41
2023/05/26 02:56:40;;;;;;;;;;;16.40;99.90;;;;;;5034219;28;19954;-40
2023/05/26 02:59:06;;;;;;;;;;;16.40;99.90;;;;;;5034860;28;20377;-41
2023/05/26 03:01:31;;;;;;;;;;;16.40;99.90;;;;;;5034709;28;19909;-40
2023/05/26 03:03:57;;;;;;;;;;;16.40;99.90;;;;;;5034877;28;20424;-40
2023/05/26 03:06:23;;;;;;;;;;;16.40;99.90;;;;;;5034003;28;19916;-40
2023/05/26 03:08:48;;;;;;;;;;;16.40;99.90;;;;;;5034609;28;19905;-40
2023/05/26 03:11:14;;;;;;;;;;;16.40;99.90;;;;;;5034401;28;19911;-40
2023/05/26 03:13:40;;;;;;;;;;;16.30;99.90;;;;;;5034483;28;19913;-42
2023/05/26 03:16:05;;;;;;;;;;;16.30;99.90;;;;;;5034009;28;20086;-40
2023/05/26 03:18:32;;;;;;;;;;;16.40;99.90;;;;;;5034482;28;20278;-41
2023/05/26 03:20:58;;;;;;;;;;;16.30;99.90;;;;;;5034451;28;19971;-40
2023/05/26 03:23:24;;;;;;;;;;;16.30;99.90;;;;;;5034392;28;20405;-41
2023/05/26 03:25:50;;;;;;;;;;;16.40;99.90;;;;;;5033891;28;19905;-41
2023/05/26 03:28:16;;;;;;;;;;;16.30;99.90;;;;;;5034028;28;19952;-41
2023/05/26 03:30:41;;;;;;;;;;;16.30;99.90;;;;;;5034298;28;20010;-41
2023/05/26 03:33:07;;;;;;;;;;;16.30;99.90;;;;;;5034037;28;19905;-41
2023/05/26 03:35:32;;;;;;;;;;;16.40;99.90;;;;;;5034075;28;19991;-41
2023/05/26 03:37:58;;;;;;;;;;;16.30;99.90;;;;;;5033556;28;19909;-40
2023/05/26 03:40:23;;;;;;;;;;;16.30;99.90;;;;;;5033863;28;19928;-41
2023/05/26 03:42:49;;;;;;;;;;;16.30;99.90;;;;;;5033759;28;19951;-40
2023/05/26 03:45:15;;;;;;;;;;;16.30;99.90;;;;;;5033337;28;19909;-40
2023/05/26 03:47:41;;;;;;;;;;;16.30;99.90;;;;;;5033187;28;19909;-40
2023/05/26 03:50:06;;;;;;;;;;;16.30;99.90;;;;;;5033783;28;20358;-40
2023/05/26 03:52:32;;;;;;;;;;;16.30;99.90;;;;;;5033767;28;19916;-40
2023/05/26 03:54:58;;;;;;;;;;;16.30;99.90;;;;;;5033523;28;19912;-40
2023/05/26 03:57:23;;;;;;;;;;;16.30;99.90;;;;;;5033192;28;20766;-41
2023/05/26 03:59:49;;;;;;;;;;;16.30;99.90;;;;;;5033616;28;19909;-40
2023/05/26 04:02:14;;;;;;;;;;;16.30;99.90;;;;;;5033526;28;19963;-40
2023/05/26 04:04:40;;;;;;;;;;;16.30;99.90;;;;;;5033505;28;19988;-40
2023/05/26 04:07:05;;;;;;;;;;;16.30;99.90;;;;;;5032938;28;20281;-40
2023/05/26 04:09:31;;;;;;;;;;;16.30;99.90;;;;;;5033372;28;19908;-40
2023/05/26 04:11:57;;;;;;;;;;;16.30;99.90;;;;;;5033432;28;19959;-41
2023/05/26 04:14:22;;;;;;;;;;;16.30;99.90;;;;;;5033225;28;19975;-40
2023/05/26 04:16:48;;;;;;;;;;;16.30;99.90;;;;;;5032906;28;19904;-41
2023/05/26 04:19:14;;;;;;;;;;;16.30;99.90;;;;;;5033279;28;19905;-41
2023/05/26 04:21:39;;;;;;;;;;;16.30;99.90;;;;;;5033278;28;20301;-41
2023/05/26 04:24:05;;;;;;;;;;;16.30;99.90;;;;;;5033021;28;19909;-40
2023/05/26 04:26:33;;;;;;;;;;;16.30;99.90;;;;;;5032767;28;20377;-40
2023/05/26 04:28:59;;;;;;;;;;;16.30;99.90;;;;;;5032819;28;20366;-40
2023/05/26 04:31:28;;;;;;;;;;;16.30;99.90;;;;;;5032985;28;19905;-40
2023/05/26 04:33:56;;;;;;;;;;;16.20;99.90;;;;;;5032837;28;19909;-41
2023/05/26 04:36:23;;;;;;;;;;;16.20;99.90;;;;;;5032449;28;19909;-40
2023/05/26 04:38:48;;;;;;;;;;;16.30;99.90;;;;;;5033251;28;20051;-40
2023/05/26 04:41:15;;;;;;;;;;;16.20;99.90;;;;;;5032809;28;20004;-41
2023/05/26 04:43:43;;;;;;;;;;;16.30;99.90;;;;;;5032599;28;19913;-41
2023/05/26 04:46:10;;;;;;;;;;;16.30;99.90;;;;;;5032311;28;19909;-40
2023/05/26 04:48:39;;;;;;;;;;;16.30;99.90;;;;;;5032609;28;19908;-40
2023/05/26 04:51:05;;;;;;;;;;;16.30;99.90;;;;;;5032585;28;19913;-41
2023/05/26 04:53:31;;;;;;;;;;;16.20;99.90;;;;;;5032459;28;20431;-40
2023/05/26 04:55:58;;;;;;;;;;;16.20;99.90;;;;;;5031417;28;19905;-40
2023/05/26 04:58:23;;;;;;;;;;;16.20;99.90;;;;;;5032385;28;19958;-40
2023/05/26 05:00:50;;;;;;;;;;;16.30;99.90;;;;;;5032542;28;19992;-40
2023/05/26 05:03:16;;;;;;;;;;;16.20;99.90;;;;;;5032460;28;20415;-41
2023/05/26 05:05:41;;;;;;;;;;;16.20;99.90;;;;;;5032635;28;19991;-40
2023/05/26 05:08:07;;;;;;;;;;;16.20;99.90;;;;;;5031901;28;19909;-41
2023/05/26 05:10:32;;;;;;;;;;;16.30;99.90;;;;;;5032280;28;19916;-40
2023/05/26 05:12:58;;;;;;;;;;;16.30;99.90;;;;;;5032304;28;20353;-41
2023/05/26 05:15:23;;;;;;;;;;;16.30;99.90;;;;;;5032194;28;20107;-41
2023/05/26 05:17:49;;;;;;;;;;;16.30;99.90;;;;;;5031689;28;19959;-40
2023/05/26 05:20:14;;;;;;;;;;;16.30;99.90;;;;;;5032021;28;19905;-40
2023/05/26 05:22:40;;;;;;;;;;;16.30;99.90;;;;;;5032166;28;19912;-41
2023/05/26 05:25:05;;;;;;;;;;;16.30;99.90;;;;;;5032001;28;20252;-40
2023/05/26 05:27:31;;;;;;;;;;;16.30;99.90;;;;;;5031415;28;19909;-41
2023/05/26 05:29:56;;;;;;;;;;;16.30;99.90;;;;;;5032030;28;19904;-41
2023/05/26 05:32:22;;;;;;;;;;;16.30;99.90;;;;;;5031904;28;20355;-40
2023/05/26 05:34:47;;;;;;;;;;;16.40;99.90;;;;;;5031690;28;19936;-41
2023/05/26 05:37:13;;;;;;;;;;;16.30;99.90;;;;;;5031295;28;19999;-42
2023/05/26 05:39:38;;;;;;;;;;;16.30;99.90;;;;;;5031752;28;20389;-40
2023/05/26 05:42:04;;;;;;;;;;;16.40;99.90;;;;;;5031779;28;19905;-40
2023/05/26 05:44:30;;;;;;;;;;;16.40;99.90;;;;;;5031550;28;19917;-40
2023/05/26 05:46:55;;;;;;;;;;;16.40;99.90;;;;;;5031101;28;19955;-41
2023/05/26 05:49:21;;;;;;;;;;;16.40;99.90;;;;;;5031595;28;19909;-41
2023/05/26 05:51:46;;;;;;;;;;;16.40;99.90;;;;;;5031593;28;19905;-40
2023/05/26 05:54:12;;;;;;;;;;;16.40;99.90;;;;;;5031593;28;19905;-40
2023/05/26 05:56:37;;;;;;;;;;;16.40;99.90;;;;;;5031270;28;19905;-41
2023/05/26 05:59:03;;;;;;;;;;;16.50;99.90;;;;;;5031581;28;19909;-41
2023/05/26 06:01:29;;;;;;;;;;;16.50;99.90;;;;;;5031597;28;20294;-41
2023/05/26 06:03:54;;;;;;;;;;;16.50;99.90;;;;;;5031397;28;19932;-40
2023/05/26 06:06:20;;;;;;;;;;;16.50;99.90;;;;;;5030868;28;19916;-41
2023/05/26 06:08:45;;;;;;;;;;;16.50;99.90;;;;;;5031162;28;19909;-40
2023/05/26 06:11:11;;;;;;;;;;;16.50;99.90;;;;;;5031410;28;19916;-40
2023/05/26 06:13:36;;;;;;;;;;;16.50;99.90;;;;;;5031567;28;19909;-41
2023/05/26 06:16:02;;;;;;;;;;;16.50;99.90;;;;;;5031011;28;19913;-41
2023/05/26 06:18:27;;;;;;;;;;;16.50;99.90;;;;;;5031228;28;19905;-40
2023/05/26 06:20:53;;;;;;;;;;;16.50;99.90;;;;;;5031220;28;20333;-40
2023/05/26 06:23:18;;;;;;;;;;;16.50;99.90;;;;;;5031458;28;19912;-41
2023/05/26 06:25:44;;;;;;;;;;;16.50;99.90;;;;;;5031035;28;19905;-40
2023/05/26 06:28:09;;;;;;;;;;;16.50;99.90;;;;;;5031348;28;20000;-40
2023/05/26 06:30:35;;;;;;;;;;;16.50;99.90;;;;;;5031374;28;19941;-40
2023/05/26 06:33:00;;;;;;;;;;;16.50;99.90;;;;;;5031286;28;19912;-41
2023/05/26 06:35:26;;;;;;;;;;;16.50;99.90;;;;;;5031114;28;19951;-41
2023/05/26 06:37:51;;;;;;;;;;;16.60;99.90;;;;;;5030690;28;20360;-40
2023/05/26 06:40:17;;;;;;;;;;;16.50;99.90;;;;;;5031193;28;19905;-40
2023/05/26 06:42:42;;;;;;;;;;;16.50;99.90;;;;;;5030897;28;20378;-41
2023/05/26 06:45:08;;;;;;;;;;;16.60;99.90;;;;;;5031135;28;19928;-41
2023/05/26 06:47:33;;;;;;;;;;;16.50;99.90;;;;;;5030471;28;19913;-40
2023/05/26 06:49:59;;;;;;;;;;;16.50;99.90;;;;;;5030973;28;19912;-40
2023/05/26 06:52:25;;;;;;;;;;;16.60;99.90;;;;;;5031089;28;19995;-41
2023/05/26 06:54:50;;;;;;;;;;;16.60;99.90;;;;;;5030998;28;19905;-41
2023/05/26 06:57:17;;;;;;;;;;;16.60;99.90;;;;;;5030584;28;19905;-41
2023/05/26 06:59:42;;;;;;;;;;;16.60;99.90;;;;;;5031013;28;19909;-41
2023/05/26 07:02:08;;;;;;;;;;;16.60;99.90;;;;;;5030990;28;20212;-41
2023/05/26 07:04:33;;;;;;;;;;;16.60;99.90;;;;;;5030730;28;19920;-41
2023/05/26 07:06:59;;;;;;;;;;;16.60;99.90;;;;;;5030317;28;19913;-40
2023/05/26 07:09:24;;;;;;;;;;;16.60;99.90;;;;;;5031309;28;19909;-40
2023/05/26 07:11:50;;;;;;;;;;;16.60;99.90;;;;;;5030783;28;20367;-41
2023/05/26 07:14:15;;;;;;;;;;;16.60;99.90;;;;;;5030764;28;19905;-40
2023/05/26 07:16:41;;;;;;;;;;;16.60;99.90;;;;;;5030266;28;19905;-40
2023/05/26 07:19:06;;;;;;;;;;;16.60;99.90;;;;;;5031168;28;20011;-40
2023/05/26 07:21:32;;;;;;;;;;;16.60;99.90;;;;;;5034339;28;20422;-40
2023/05/26 07:23:58;;;;;;;;;;;16.60;99.90;;;;;;5034238;28;19912;-43
2023/05/26 07:26:24;;;;;;;;;;;16.60;99.90;;;;;;5033680;28;20322;-40
2023/05/26 07:28:50;;;;;;;;;;;16.60;99.90;;;;;;5034118;28;19920;-40
2023/05/26 07:31:16;;;;;;;;;;;16.60;99.90;;;;;;5034151;28;19905;-40
2023/05/26 07:33:41;;;;;;;;;;;16.60;99.90;;;;;;5033925;28;19931;-40
2023/05/26 07:36:07;;;;;;;;;;;16.60;99.90;;;;;;5033571;28;19944;-40
2023/05/26 07:38:32;;;;;;;;;;;16.70;99.90;;;;;;5034008;28;20286;-41
2023/05/26 07:40:58;;;;;;;;;;;16.60;99.90;;;;;;5033946;28;20355;-40
2023/05/26 07:43:23;;;;;;;;;;;16.60;99.90;;;;;;5034358;28;19913;-41
2023/05/26 07:45:49;;;;;;;;;;;16.60;99.90;;;;;;5033520;28;20013;-41
2023/05/26 07:48:15;;;;;;;;;;;16.60;99.90;;;;;;5033513;28;19909;-41
2023/05/26 07:50:40;;;;;;;;;;;16.60;99.90;;;;;;5034197;28;19909;-40
2023/05/26 07:53:06;;;;;;;;;;;16.60;99.90;;;;;;5033764;28;19905;-40
2023/05/26 07:55:32;;;;;;;;;;;16.60;99.90;;;;;;5033701;28;20445;-41
2023/05/26 07:57:57;;;;;;;;;;;16.60;99.90;;;;;;5033323;28;20006;-42
2023/05/26 08:00:23;;;;;;;;;;;16.60;99.90;;;;;;5033732;28;20224;-40
2023/05/26 08:02:48;;;;;;;;;;;16.60;99.90;;;;;;5033564;28;19905;-40
2023/05/26 08:05:14;;;;;;;;;;;16.60;99.90;;;;;;5033531;28;20290;-41
2023/05/26 08:07:39;;;;;;;;;;;16.60;99.90;;;;;;5032981;28;19952;-40
2023/05/26 08:10:05;;;;;;;;;;;16.60;99.90;;;;;;5033466;28;19932;-40
2023/05/26 08:12:31;;;;;;;;;;;16.60;99.90;;;;;;5033420;28;20333;-40
2023/05/26 08:14:56;;;;;;;;;;;16.60;99.90;;;;;;5033263;28;19905;-40
2023/05/26 08:17:22;;;;;;;;;;;16.60;99.90;;;;;;5032626;28;19951;-40
2023/05/26 08:19:48;;;;;;;;;;;16.60;99.90;;;;;;5033320;28;19905;-40
2023/05/26 08:22:13;;;;;;;;;;;16.60;99.90;;;;;;5033190;28;19913;-41
2023/05/26 08:24:40;;;;;;;;;;;16.60;99.90;;;;;;5033276;28;19916;-40
2023/05/26 08:27:06;;;;;;;;;;;16.70;99.90;;;;;;5032571;28;20416;-40
2023/05/26 08:29:31;;;;;;;;;;;16.60;99.90;;;;;;5033147;28;19913;-40
2023/05/26 08:31:57;;;;;;;;;;;16.60;99.90;;;;;;5032829;28;19905;-40
2023/05/26 08:34:22;;;;;;;;;;;16.60;99.90;;;;;;5032807;28;20367;-40
2023/05/26 08:36:48;;;;;;;;;;;16.70;99.90;;;;;;5032596;28;19905;-40
2023/05/26 08:39:13;;;;;;;;;;;16.70;99.90;;;;;;5032919;28;20397;-41
2023/05/26 08:41:51;;;;;;;;;;;16.70;99.90;;;;;;5032883;28;19905;-40
2023/05/26 08:44:17;;;;;;;;;;;16.70;99.90;;;;;;5032655;28;19917;-40
2023/05/26 08:46:46;;;;;;;;;;;16.70;99.90;;;;;;5032270;28;19909;-42
2023/05/26 08:49:14;;;;;;;;;;;16.70;99.90;;;;;;5032715;28;20390;-40
2023/05/26 08:51:44;;;;;;;;;;;16.70;99.90;;;;;;5032747;28;20365;-40
2023/05/26 08:54:09;;;;;;;;;;;16.70;99.90;;;;;;5032963;28;20279;-40
2023/05/26 08:56:36;;;;;;;;;;;16.70;99.90;;;;;;5032105;28;20450;-40
2023/05/26 08:59:02;;;;;;;;;;;16.70;99.90;;;;;;5032467;28;19970;-42
2023/05/26 09:01:27;;;;;;;;;;;16.70;99.90;;;;;;5032530;28;20322;-40
2023/05/26 09:03:53;;;;;;;;;;;16.80;99.90;;;;;;5032336;28;19913;-40
2023/05/26 09:06:18;;;;;;;;;;;16.80;99.90;;;;;;5031872;28;19951;-40
2023/05/26 09:08:44;;;;;;;;;;;16.80;99.90;;;;;;5032180;28;19909;-40
2023/05/26 09:11:20;;;;;;;;;;;16.80;99.90;;;;;;5032362;28;20143;-43
2023/05/26 09:13:50;;;;;;;;;;;16.80;99.90;;;;;;5032380;28;20321;-41
2023/05/26 09:16:15;;;;;;;;;;;16.80;99.90;;;;;;5031661;28;19905;-41
2023/05/26 09:18:41;;;;;;;;;;;16.80;99.90;;;;;;5032162;28;19912;-40
2023/05/26 09:21:07;;;;;;;;;;;16.80;99.90;;;;;;5032104;28;20197;-40
2023/05/26 09:23:32;;;;;;;;;;;16.80;99.90;;;;;;5032399;28;19955;-40
2023/05/26 09:25:58;;;;;;;;;;;16.90;99.90;;;;;;5031659;28;19928;-41
2023/05/26 09:28:23;;;;;;;;;;;16.80;99.90;;;;;;5031391;28;20385;-42
2023/05/26 09:30:49;;;;;;;;;;;16.80;99.90;;;;;;5031969;28;19905;-41
2023/05/26 09:33:16;;;;;;;;;;;16.90;99.90;;;;;;5031826;28;19905;-40
2023/05/26 09:35:43;;;;;;;;;;;16.90;99.90;;;;;;5032114;28;19950;-40
2023/05/26 09:38:09;;;;;;;;;;;16.90;99.90;;;;;;5031573;28;20375;-40
2023/05/26 09:40:39;;;;;;;;;;;16.90;99.90;;;;;;5032320;28;19905;-41
2023/05/26 09:43:05;;;;;;;;;;;16.90;99.90;;;;;;5031168;28;20236;-40
2023/05/26 09:45:37;;;;;;;;;;;16.90;99.90;;;;;;5031995;28;19905;-40
2023/05/26 09:48:03;;;;;;;;;;;17.00;99.90;;;;;;5031197;28;19909;-41
2023/05/26 09:50:29;;;;;;;;;;;17.00;99.90;;;;;;5031818;28;19909;-41
2023/05/26 09:52:56;;;;;;;;;;;17.00;99.90;;;;;;5031557;28;19928;-41
2023/05/26 09:55:22;;;;;;;;;;;17.00;99.90;;;;;;5031457;28;19905;-41
2023/05/26 09:57:47;;;;;;;;;;;16.90;99.90;;;;;;5031223;28;19905;-40
2023/05/26 10:00:17;;;;;;;;;;;17.00;99.90;;;;;;5031569;28;19916;-41
2023/05/26 10:02:45;;;;;;;;;;;17.00;99.90;;;;;;5031486;28;19905;-41
2023/05/26 10:05:10;;;;;;;;;;;17.00;99.90;;;;;;5031497;28;19909;-40
2023/05/26 10:07:36;;;;;;;;;;;17.00;99.90;;;;;;5030834;28;19909;-41
2023/05/26 10:10:02;;;;;;;;;;;17.10;99.90;;;;;;5031295;28;19905;-40
2023/05/26 10:12:32;;;;;;;;;;;17.00;99.90;;;;;;5031385;28;19995;-40
2023/05/26 10:14:58;;;;;;;;;;;17.00;99.90;;;;;;5031352;28;19905;-41
2023/05/26 10:17:25;;;;;;;;;;;17.00;99.90;;;;;;5031000;28;19915;-41
2023/05/26 10:19:55;;;;;;;;;;;17.10;99.90;;;;;;5031434;28;19916;-40
2023/05/26 10:22:39;;;;;;;;;;;17.10;99.90;;;;;;5031205;28;19905;-40
2023/05/26 10:25:25;;;;;;;;;;;17.10;99.90;;;;;;5031290;28;19905;-40
2023/05/26 10:27:56;;;;;;;;;;;17.10;99.90;;;;;;5030197;28;19909;-40
2023/05/26 10:30:22;;;;;;;;;;;17.10;99.90;;;;;;5031292;28;19909;-41
2023/05/26 10:32:48;;;;;;;;;;;17.10;99.90;;;;;;5031010;28;20271;-40
2023/05/26 10:35:23;;;;;;;;;;;17.10;99.90;;;;;;5031319;28;19920;-41
2023/05/26 10:38:10;;;;;;;;;;;17.10;99.90;;;;;;5030671;28;19947;-40
2023/05/26 10:40:43;;;;;;;;;;;17.10;99.90;;;;;;5031267;28;19905;-40
2023/05/26 10:43:11;;;;;;;;;;;17.10;99.90;;;;;;5030956;28;20378;-41
2023/05/26 10:45:44;;;;;;;;;;;17.10;99.90;;;;;;5031088;28;20355;-40
2023/05/26 10:48:10;;;;;;;;;;;17.10;99.90;;;;;;5030764;28;19982;-41
2023/05/26 10:50:54;;;;;;;;;;;17.10;99.90;;;;;;5031081;28;19963;-42
2023/05/26 10:53:20;;;;;;;;;;;17.10;99.90;;;;;;5030969;28;19909;-41
2023/05/26 10:55:53;;;;;;;;;;;17.10;99.90;;;;;;5033714;28;20259;-40
2023/05/26 10:58:29;;;;;;;;;;;17.20;99.90;;;;;;5034664;28;20274;-40
2023/05/26 11:00:55;;;;;;;;;;;17.20;99.90;;;;;;5034763;28;20268;-41
2023/05/26 11:03:33;;;;;;;;;;;17.20;99.90;;;;;;5034710;28;19940;-40
2023/05/26 11:05:59;;;;;;;;;;;17.20;99.90;;;;;;5034681;28;20631;-43
2023/05/26 11:08:25;;;;;;;;;;;17.20;99.90;;;;;;5034818;28;19927;-41
2023/05/26 11:11:02;;;;;;;;;;;17.20;99.90;;;;;;5034606;28;19905;-40
2023/05/26 11:13:41;;;;;;;;;;;17.20;99.90;;;;;;5034839;28;19909;-41
2023/05/26 11:16:16;;;;;;;;;;;17.20;99.90;;;;;;5034007;28;19905;-42
2023/05/26 11:18:48;;;;;;;;;;;17.20;99.90;;;;;;5034293;28;19905;-40
2023/05/26 11:21:14;;;;;;;;;;;17.20;99.90;;;;;;5034380;28;19920;-40
2023/05/26 11:23:40;;;;;;;;;;;17.20;99.90;;;;;;5034284;28;19905;-41
2023/05/26 11:26:10;;;;;;;;;;;17.30;99.90;;;;;;5034011;28;19995;-40
2023/05/26 11:28:39;;;;;;;;;;;17.30;99.90;;;;;;5034222;28;19909;-41
2023/05/26 11:31:12;;;;;;;;;;;17.30;99.90;;;;;;5034226;28;19909;-40
2023/05/26 11:33:38;;;;;;;;;;;17.30;99.90;;;;;;5034146;28;19905;-41
2023/05/26 11:36:14;;;;;;;;;;;17.30;99.90;;;;;;5033720;28;19913;-41
2023/05/26 11:38:40;;;;;;;;;;;17.30;99.90;;;;;;5034114;28;19915;-40
2023/05/26 11:41:06;;;;;;;;;;;17.30;99.90;;;;;;5034051;28;19912;-41
2023/05/26 11:43:32;;;;;;;;;;;17.30;99.90;;;;;;5033753;28;19913;-41
2023/05/26 11:45:59;;;;;;;;;;;17.30;99.90;;;;;;5033547;28;19962;-41
2023/05/26 11:48:29;;;;;;;;;;;17.40;99.90;;;;;;5033885;28;20356;-41
2023/05/26 11:50:55;;;;;;;;;;;17.30;99.90;;;;;;5033838;28;19905;-42
2023/05/26 11:53:21;;;;;;;;;;;17.40;99.90;;;;;;5033741;28;19915;-40
2023/05/26 11:55:46;;;;;;;;;;;17.40;99.90;;;;;;5033505;28;19905;-40
2023/05/26 11:58:13;;;;;;;;;;;17.40;99.90;;;;;;5033331;28;20058;-40
2023/05/26 12:00:38;;;;;;;;;;;17.40;99.90;;;;;;5033710;28;20291;-41
2023/05/26 12:03:04;;;;;;;;;;;17.40;99.90;;;;;;5033545;28;20443;-40
2023/05/26 12:05:29;;;;;;;;;;;17.40;99.90;;;;;;5033343;28;19915;-41
2023/05/26 12:08:02;;;;;;;;;;;17.40;99.90;;;;;;5032969;28;19970;-41
2023/05/26 12:10:28;;;;;;;;;;;17.40;99.90;;;;;;5033475;28;19905;-40
2023/05/26 12:12:54;;;;;;;;;;;17.40;99.90;;;;;;5033241;28;19916;-41
2023/05/26 12:15:20;;;;;;;;;;;17.50;99.90;;;;;;5033372;28;20428;-40
2023/05/26 12:17:46;;;;;;;;;;;17.40;99.90;;;;;;5033122;28;19992;-41
2023/05/26 12:20:16;;;;;;;;;;;17.50;99.90;;;;;;5033264;28;20331;-41
2023/05/26 12:22:42;;;;;;;;;;;17.50;99.90;;;;;;5033194;28;19904;-40
2023/05/26 12:25:07;;;;;;;;;;;17.50;99.90;;;;;;5033341;28;19962;-41
2023/05/26 12:27:39;;;;;;;;;;;17.50;99.90;;;;;;5032533;28;20406;-42
2023/05/26 12:30:18;;;;;;;;;;;17.50;99.90;;;;;;5033154;28;20333;-42
2023/05/26 12:32:43;;;;;;;;;;;17.50;99.90;;;;;;5033022;28;19935;-42
2023/05/26 12:35:09;;;;;;;;;;;17.50;99.90;;;;;;5033072;28;19909;-41
2023/05/26 12:37:34;;;;;;;;;;;17.50;99.90;;;;;;5032452;28;19911;-40
2023/05/26 12:40:00;;;;;;;;;;;17.50;99.90;;;;;;5032720;28;19909;-41
2023/05/26 12:42:26;;;;;;;;;;;17.50;99.90;;;;;;5032885;28;19912;-41
2023/05/26 12:44:51;;;;;;;;;;;17.50;99.90;;;;;;5032689;28;19913;-40
2023/05/26 12:47:18;;;;;;;;;;;17.50;99.90;;;;;;5032341;28;19909;-43
2023/05/26 12:49:43;;;;;;;;;;;17.50;99.90;;;;;;5032718;28;19913;-41
2023/05/26 12:52:09;;;;;;;;;;;17.60;99.90;;;;;;5032715;28;19971;-40
2023/05/26 12:54:35;;;;;;;;;;;17.60;99.90;;;;;;5032409;28;19975;-41
2023/05/26 12:57:04;;;;;;;;;;;17.50;99.90;;;;;;5032077;28;19999;-41
2023/05/26 12:59:33;;;;;;;;;;;17.50;99.90;;;;;;5032600;28;20267;-40
2023/05/26 13:01:59;;;;;;;;;;;17.50;99.90;;;;;;5032890;28;19905;-40
2023/05/26 13:04:25;;;;;;;;;;;17.60;99.90;;;;;;5032383;28;20336;-41
2023/05/26 13:06:54;;;;;;;;;;;17.60;99.90;;;;;;5031709;28;20363;-41
2023/05/26 13:09:21;;;;;;;;;;;17.60;99.90;;;;;;5032361;28;19909;-41
2023/05/26 13:11:47;;;;;;;;;;;17.60;99.90;;;;;;5032373;28;19912;-41
2023/05/26 13:14:12;;;;;;;;;;;17.60;99.90;;;;;;5032219;28;19905;-41
2023/05/26 13:16:38;;;;;;;;;;;17.60;99.90;;;;;;5031154;28;19905;-40
2023/05/26 13:19:04;;;;;;;;;;;17.60;99.90;;;;;;5032003;28;20326;-41
2023/05/26 13:21:30;;;;;;;;;;;17.60;99.90;;;;;;5032553;28;19912;-41
2023/05/26 13:23:56;;;;;;;;;;;17.60;99.90;;;;;;5031969;28;19991;-40
2023/05/26 13:26:22;;;;;;;;;;;17.60;99.90;;;;;;5031583;28;19996;-40
2023/05/26 13:28:49;;;;;;;;;;;17.60;99.90;;;;;;5031995;28;19916;-41
2023/05/26 13:31:15;;;;;;;;;;;17.60;99.90;;;;;;5032377;28;19931;-41
2023/05/26 13:33:41;;;;;;;;;;;17.60;99.90;;;;;;5031955;28;20285;-41
2023/05/26 13:36:09;;;;;;;;;;;17.60;99.90;;;;;;5031351;28;19909;-40
2023/05/26 13:38:35;;;;;;;;;;;17.60;99.90;;;;;;5032209;28;19952;-40
2023/05/26 13:41:01;;;;;;;;;;;17.60;99.90;;;;;;5031878;28;19945;-41
2023/05/26 13:43:26;;;;;;;;;;;17.70;99.90;;;;;;5032354;28;19917;-40
2023/05/26 13:45:52;;;;;;;;;;;17.70;99.90;;;;;;5031475;28;20012;-43
2023/05/26 13:48:17;;;;;;;;;;;17.70;99.90;;;;;;5031450;28;19913;-41
2023/05/26 13:50:44;;;;;;;;;;;17.70;99.90;;;;;;5031544;28;19909;-40
2023/05/26 13:53:10;;;;;;;;;;;17.60;99.90;;;;;;5031612;28;19905;-41
2023/05/26 13:55:35;;;;;;;;;;;17.70;99.90;;;;;;5031826;28;19905;-40
2023/05/26 13:58:01;;;;;;;;;;;17.60;99.90;;;;;;5031192;28;19912;-40
2023/05/26 14:00:26;;;;;;;;;;;17.70;99.90;;;;;;5031910;28;19944;-40
2023/05/26 14:02:52;;;;;;;;;;;17.70;99.90;;;;;;5031510;28;19916;-42
2023/05/26 14:05:18;;;;;;;;;;;17.70;99.90;;;;;;5031420;28;20290;-40
2023/05/26 14:07:44;;;;;;;;;;;17.70;99.90;;;;;;5030962;28;19913;-40
2023/05/26 14:10:10;;;;;;;;;;;17.70;99.90;;;;;;5031945;28;19912;-41
2023/05/26 14:12:36;;;;;;;;;;;17.60;99.90;;;;;;5031497;28;19978;-40